Denpasar, Indonesia

7:43 PM WITA on October 23, 2014 (GMT +0800)
BALI INTL | Change Station
CLOSE
Current Station
Airport
Location: BALI INTL,
Elevation: 13 ft
Nearby Weather Stations

Elev 13 ft 8.75 °S, 115.17 °E | Updated 13 minutes ago

Scattered Clouds
Scattered Clouds
81 °F
Feels Like 85 °F
N
7
Wind Variable Wind from South

Today
High -- | Low -- °F
--% Chance of Precip.
Yesterday
High -- | Low -- °F
Precip. -- in
5:53 AM 6:14 PM
Waning Crescent, 0% visible
Pressure 29.86 in
Visibility 6.2 miles
Clouds Scattered Clouds 1800 ft
Heat Index 85 °F
Dew Point 73 °F
Humidity 79%
Rainfall 0.00 in
Snow Depth Not available.
UV 0 out of 12
Pollen Not available.
Air Quality Not available.
Flu Activity Not available.
METAR WADD 231130Z 18006KT 9999 SCT018 27/23 Q1011 NOSIG

More Conditions Fewer Conditions

Pressure 29.86 in
Visibility 6.2 miles
Clouds Scattered Clouds 1800 ft
Heat Index 85 °F
Dew Point 73 °F
Humidity 79%
Rainfall 0.00 in
Snow Depth Not available.
UV 0 out of 12
Pollen Not available.
Air Quality Not available.
Flu Activity Not available.
METAR WADD 231130Z 18006KT 9999 SCT018 27/23 Q1011 NOSIG

More Conditions Fewer Conditions

10-Day Weather Forecast

Almanac

Astronomy

Oct. 23, 2014 Rise Set
Actual Time 5:53 AM WITA 6:14 PM WITA
Civil Twilight 5:31 AM WITA 6:35 PM WITA
Nautical Twilight 5:06 AM WITA 7:00 PM WITA
Astronomical Twilight 4:41 AM WITA 7:25 PM WITA
Moon 5:14 AM WITA 5:47 PM WITA
Length of Visible Light 13h 03m
Length of Day
12h 20m
Tomorrow will be 0m 27s longer.
Waning Crescent, 0% of the Moon is Illuminated
Today
Waning Crescent
Oct 23
New
Oct 30
First Quarter
Nov 6
Full
Nov 14
Last Quarter

Yesterday's Extremes

Country Highs Country Lows

Community

WunderPhotos

Upload Photos

1,764,209 photos uploaded!

Nearby

Snow Depth

Not available.

Earthquake Activity

City Distance Mag. Time & Date
No recent earthquake activity has been reported nearby.
Minimum magnitude displayed is 2.5.

Coastal Water Temperatures

Place Temperature
No Stations Reporting

Nearby Weather Stations